Time;durP1;ratioP1;P1;durP2;ratioP2;P2;SDS_P1;SDS_P2;PMS_P1;PMS_P2;Temp;Humidity;BMP_temperature;BMP_pressure;BME280_temperature;BME280_humidity;BME280_pressure;Samples;Min_cycle;Max_cycle;Signal;HPM_P1;HPM_P2
2023/04/21 00:00:08;;;;;;;20.07;18.00;;;9.10;99.90;;;;;;5115254;28;20500;-74
2023/04/21 00:02:40;;;;;;;20.63;17.77;;;9.10;99.90;;;;;;5115010;28;20980;-74
2023/04/21 00:05:11;;;;;;;19.63;17.83;;;9.10;99.90;;;;;;5097205;28;20443;-74
2023/04/21 00:07:43;;;;;;;20.07;17.93;;;9.10;99.90;;;;;;5096783;28;20435;-74
2023/04/21 00:10:12;;;;;;;19.73;17.73;;;9.00;99.90;;;;;;5096957;28;20439;-74
2023/04/21 00:12:40;;;;;;;19.70;17.80;;;9.00;99.90;;;;;;5096839;28;20471;-74
2023/04/21 00:15:09;;;;;;;19.13;17.23;;;9.00;99.90;;;;;;5114912;28;20535;-74
2023/04/21 00:17:38;;;;;;;18.33;16.43;;;9.00;99.90;;;;;;5115057;28;20509;-74
2023/04/21 00:20:09;;;;;;;18.77;17.03;;;9.00;99.90;;;;;;5114740;28;20470;-74
2023/04/21 00:22:37;;;;;;;19.70;17.70;;;9.00;99.90;;;;;;5114908;28;20455;-74
2023/04/21 00:25:07;;;;;;;19.50;17.70;;;9.00;99.90;;;;;;5096392;28;20450;-74
2023/04/21 00:27:35;;;;;;;20.97;18.00;;;9.00;99.90;;;;;;5096503;28;20443;-74
2023/04/21 00:30:05;;;;;;;19.70;17.60;;;9.00;99.90;;;;;;5096228;28;21019;-74
2023/04/21 00:32:35;;;;;;;19.80;17.80;;;9.00;99.90;;;;;;5096365;28;20904;-74
2023/04/21 00:35:03;;;;;;;19.70;17.90;;;9.00;99.90;;;;;;5096170;28;20450;-74
2023/04/21 00:37:31;;;;;;;18.57;16.73;;;9.00;99.90;;;;;;5113112;28;20443;-74
2023/04/21 00:40:00;;;;;;;19.50;17.50;;;8.90;99.90;;;;;;5114957;28;20476;-74
2023/04/21 00:42:29;;;;;;;18.57;16.50;;;8.90;99.90;;;;;;5113024;28;20500;-74
2023/04/21 00:44:57;;;;;;;19.93;16.73;;;9.00;99.90;;;;;;5096032;28;20443;-74
2023/04/21 00:47:25;;;;;;;18.63;16.83;;;9.00;99.90;;;;;;5095163;28;20436;-74
2023/04/21 00:49:54;;;;;;;19.13;17.20;;;9.00;99.90;;;;;;5095852;28;20844;-74
2023/04/21 00:52:22;;;;;;;17.83;16.17;;;9.00;99.90;;;;;;5095862;28;20459;-74
2023/04/21 00:54:50;;;;;;;18.53;16.77;;;9.00;99.90;;;;;;5095810;28;20435;-74
2023/04/21 00:57:19;;;;;;;17.73;16.07;;;9.00;99.90;;;;;;5114266;28;20445;-74
2023/04/21 00:59:50;;;;;;;19.10;17.13;;;9.00;99.90;;;;;;5096164;28;20512;-74
2023/04/21 01:02:19;;;;;;;18.60;16.63;;;9.00;99.90;;;;;;5113947;28;20469;-74
2023/04/21 01:04:48;;;;;;;18.17;16.37;;;9.00;99.90;;;;;;5095699;28;20450;-74
2023/04/21 01:07:16;;;;;;;17.83;16.07;;;9.00;99.90;;;;;;5095661;28;20496;-74
2023/04/21 01:09:44;;;;;;;18.80;16.80;;;9.00;99.90;;;;;;5113850;28;20459;-74
2023/04/21 01:12:13;;;;;;;17.80;16.00;;;9.00;99.90;;;;;;5095595;28;20487;-74
2023/04/21 01:14:41;;;;;;;19.67;16.90;;;9.00;99.90;;;;;;5095480;28;20447;-74
2023/04/21 01:17:12;;;;;;;19.03;17.13;;;9.00;99.90;;;;;;5095480;28;20881;-74
2023/04/21 01:19:42;;;;;;;18.60;16.73;;;9.00;99.90;;;;;;5095732;28;20449;-74
2023/04/21 01:22:14;;;;;;;18.60;16.50;;;9.00;99.90;;;;;;5095427;28;20482;-74
2023/04/21 01:24:43;;;;;;;17.77;16.00;;;9.00;99.90;;;;;;5095453;28;20851;-74
2023/04/21 01:27:14;;;;;;;19.10;17.37;;;9.00;99.90;;;;;;5095273;28;20467;-74
2023/04/21 01:29:45;;;;;;;17.90;16.00;;;9.00;99.90;;;;;;5095101;28;20475;-74
2023/04/21 01:32:16;;;;;;;18.80;16.80;;;9.00;99.90;;;;;;5095546;28;20997;-74
2023/04/21 01:34:46;;;;;;;18.07;16.33;;;9.00;99.90;;;;;;5095343;28;20470;-74
2023/04/21 01:37:17;;;;;;;17.30;15.70;;;9.00;99.90;;;;;;5095243;28;20435;-74
2023/04/21 01:39:50;;;;;;;18.47;16.63;;;8.90;99.90;;;;;;5113950;28;20412;-74
2023/04/21 01:42:19;;;;;;;19.10;17.23;;;8.90;99.90;;;;;;5095174;28;20977;-74
2023/04/21 01:44:48;;;;;;;17.50;15.90;;;8.90;99.90;;;;;;5095357;28;20451;-74
2023/04/21 01:47:18;;;;;;;17.60;15.83;;;8.90;99.90;;;;;;5095209;28;20489;-74
2023/04/21 01:49:46;;;;;;;17.93;16.30;;;8.90;99.90;;;;;;5095047;28;21066;-74
2023/04/21 01:52:16;;;;;;;17.07;15.50;;;8.90;99.90;;;;;;5095844;28;20463;-74
2023/04/21 01:54:46;;;;;;;17.53;15.83;;;8.90;99.90;;;;;;5094985;28;20450;-74
2023/04/21 01:57:14;;;;;;;19.23;17.47;;;8.80;99.90;;;;;;5095688;28;20962;-74
2023/04/21 01:59:42;;;;;;;18.00;16.30;;;8.80;99.90;;;;;;5101635;28;20461;-75
2023/04/21 02:02:11;;;;;;;17.93;16.13;;;8.80;99.90;;;;;;5101692;28;20458;-74
2023/04/21 02:04:39;;;;;;;19.60;17.63;;;8.80;99.90;;;;;;5101728;28;20864;-74
2023/04/21 02:07:08;;;;;;;17.23;15.43;;;8.80;99.90;;;;;;5101546;28;20882;-74
2023/04/21 02:09:37;;;;;;;18.60;16.70;;;8.80;99.90;;;;;;5119862;28;20512;-74
2023/04/21 02:12:06;;;;;;;18.17;16.40;;;8.80;99.90;;;;;;5101493;28;20466;-75
2023/04/21 02:14:34;;;;;;;17.67;15.90;;;8.70;99.90;;;;;;5119853;28;20443;-74
2023/04/21 02:17:02;;;;;;;16.80;15.00;;;8.70;99.90;;;;;;5101533;28;20475;-74
2023/04/21 02:19:30;;;;;;;18.27;16.37;;;8.70;99.90;;;;;;5101554;28;20450;-74
2023/04/21 02:21:58;;;;;;;19.20;17.23;;;8.70;99.90;;;;;;5101492;28;20445;-74
2023/04/21 02:24:27;;;;;;;18.20;15.93;;;8.70;99.90;;;;;;5101409;28;20443;-74
2023/04/21 02:26:57;;;;;;;17.40;15.60;;;8.70;99.90;;;;;;5101572;28;20446;-74
2023/04/21 02:29:28;;;;;;;16.60;15.00;;;8.70;99.90;;;;;;5101486;28;20465;-74
2023/04/21 02:31:56;;;;;;;18.63;15.90;;;8.70;99.90;;;;;;5101463;28;20446;-75
2023/04/21 02:34:41;;;;;;;18.43;16.47;;;8.70;99.90;;;;;;5101338;28;20469;-74
2023/04/21 02:37:10;;;;;;;15.93;14.40;;;8.70;99.90;;;;;;5101488;28;20435;-74
2023/04/21 02:39:38;;;;;;;19.70;15.10;;;8.70;99.90;;;;;;5101552;28;20807;-74
2023/04/21 02:42:07;;;;;;;17.03;15.33;;;8.70;99.90;;;;;;5101311;28;20462;-75
2023/04/21 02:44:37;;;;;;;16.67;15.13;;;8.70;99.90;;;;;;5101523;28;20462;-74
2023/04/21 02:47:05;;;;;;;17.93;15.80;;;8.70;99.90;;;;;;5119992;28;20427;-74
2023/04/21 02:49:33;;;;;;;15.53;14.07;;;8.70;99.90;;;;;;5101036;28;20476;-75
2023/04/21 02:52:01;;;;;;;16.97;15.10;;;8.70;99.90;;;;;;5101255;28;20446;-74
2023/04/21 02:54:29;;;;;;;18.43;15.20;;;8.70;99.90;;;;;;5101159;28;20504;-75
2023/04/21 02:56:58;;;;;;;16.53;14.83;;;8.70;99.90;;;;;;5101057;28;20980;-74
2023/04/21 02:59:27;;;;;;;18.23;16.33;;;8.70;99.90;;;;;;5100993;28;20544;-74
2023/04/21 03:01:55;;;;;;;16.00;14.50;;;8.70;99.90;;;;;;5119277;28;20439;-75
2023/04/21 03:04:24;;;;;;;17.00;15.40;;;8.70;99.90;;;;;;5119321;28;20451;-74
2023/04/21 03:06:53;;;;;;;15.87;14.37;;;8.70;99.90;;;;;;5119632;28;20788;-74
2023/04/21 03:09:21;;;;;;;19.80;15.73;;;8.70;99.90;;;;;;5117424;28;20439;-74
2023/04/21 03:11:49;;;;;;;16.03;14.57;;;8.60;99.90;;;;;;5115963;28;20431;-75
2023/04/21 03:14:18;;;;;;;16.47;13.80;;;8.70;99.90;;;;;;5097690;28;20474;-74
2023/04/21 03:16:48;;;;;;;17.00;15.13;;;8.70;99.90;;;;;;5116038;28;20847;-74
2023/04/21 03:19:16;;;;;;;16.53;15.03;;;8.70;99.90;;;;;;5097882;28;20442;-75
2023/04/21 03:21:45;;;;;;;17.93;15.40;;;8.60;99.90;;;;;;5116142;28;20432;-74
2023/04/21 03:24:13;;;;;;;12.80;11.47;;;8.70;99.90;;;;;;5097673;28;20440;-74
2023/04/21 03:26:41;;;;;;;16.33;14.73;;;8.60;99.90;;;;;;5097509;28;20443;-74
2023/04/21 03:29:09;;;;;;;16.53;14.87;;;8.70;99.90;;;;;;5097368;28;20939;-75
2023/04/21 03:31:37;;;;;;;17.90;15.03;;;8.60;99.90;;;;;;5097293;28;20512;-74
2023/04/21 03:34:08;;;;;;;16.13;14.40;;;8.60;99.90;;;;;;5097340;28;20982;-74
2023/04/21 03:36:36;;;;;;;19.13;15.73;;;8.60;99.90;;;;;;5097309;28;20792;-74
2023/04/21 03:39:05;;;;;;;17.10;15.17;;;8.60;99.90;;;;;;5097709;28;20454;-74
2023/04/21 03:41:49;;;;;;;16.63;15.07;;;8.60;99.90;;;;;;5097405;28;20439;-75
2023/04/21 03:44:17;;;;;;;15.83;14.13;;;8.60;99.90;;;;;;5097145;28;20463;-74
2023/04/21 03:46:45;;;;;;;16.20;14.50;;;8.60;99.90;;;;;;5097073;28;20451;-74
2023/04/21 03:49:14;;;;;;;16.37;14.67;;;8.60;99.90;;;;;;5097127;28;20466;-74
2023/04/21 03:51:43;;;;;;;17.73;15.70;;;8.60;99.90;;;;;;5115282;28;20471;-75
2023/04/21 03:54:11;;;;;;;17.40;15.37;;;8.60;99.90;;;;;;5097277;28;20439;-74
2023/04/21 03:56:39;;;;;;;15.53;14.00;;;8.60;99.90;;;;;;5115348;28;20439;-74
2023/04/21 03:59:07;;;;;;;17.27;15.60;;;8.70;99.90;;;;;;5096802;28;20450;-74
2023/04/21 04:01:35;;;;;;;16.00;14.50;;;8.60;99.90;;;;;;5115032;28;20451;-74
2023/04/21 04:04:03;;;;;;;15.13;13.53;;;8.70;99.90;;;;;;5115489;28;20462;-74
2023/04/21 04:06:34;;;;;;;15.70;14.20;;;8.70;99.90;;;;;;5115151;28;20477;-74
2023/04/21 04:09:03;;;;;;;16.50;14.80;;;8.70;99.90;;;;;;5096740;28;20439;-74
2023/04/21 04:11:31;;;;;;;16.17;14.47;;;8.70;99.90;;;;;;5114863;28;20841;-74
2023/04/21 04:14:00;;;;;;;16.37;14.70;;;8.70;99.90;;;;;;5096481;28;20470;-74
2023/04/21 04:16:28;;;;;;;15.90;13.90;;;8.70;99.90;;;;;;5096377;28;20444;-75
2023/04/21 04:18:57;;;;;;;16.30;14.70;;;8.70;99.90;;;;;;5096331;28;20439;-74
2023/04/21 04:21:26;;;;;;;18.73;15.10;;;8.70;99.90;;;;;;5113890;28;20443;-74
2023/04/21 04:23:56;;;;;;;15.90;14.33;;;8.70;99.90;;;;;;5114596;28;20451;-74
2023/04/21 04:26:24;;;;;;;16.10;14.47;;;8.70;99.90;;;;;;5096278;28;20444;-75
2023/04/21 04:28:55;;;;;;;17.97;15.00;;;8.70;99.90;;;;;;5115136;28;20792;-75
2023/04/21 04:31:24;;;;;;;16.23;13.77;;;8.70;99.90;;;;;;5114484;28;20451;-74
2023/04/21 04:33:52;;;;;;;16.07;14.23;;;8.60;99.90;;;;;;5114398;28;20499;-74
2023/04/21 04:36:22;;;;;;;16.83;15.13;;;8.70;99.90;;;;;;5096115;28;20972;-74
2023/04/21 04:38:51;;;;;;;17.10;15.40;;;8.70;99.90;;;;;;5114392;28;20427;-74
2023/04/21 04:41:21;;;;;;;16.37;14.77;;;8.70;99.90;;;;;;5096031;28;20805;-74
2023/04/21 04:43:49;;;;;;;17.30;15.57;;;8.70;99.90;;;;;;5095914;28;20458;-74
2023/04/21 04:46:19;;;;;;;17.10;15.40;;;8.70;99.90;;;;;;5095914;28;20479;-74
2023/04/21 04:48:48;;;;;;;17.07;14.77;;;8.70;99.90;;;;;;5115071;28;20446;-74
2023/04/21 04:51:16;;;;;;;15.70;14.20;;;8.60;99.90;;;;;;5096126;28;20827;-74
2023/04/21 04:53:44;;;;;;;17.77;14.77;;;8.60;99.90;;;;;;5095875;28;20858;-74
2023/04/21 04:56:12;;;;;;;17.60;15.80;;;8.60;99.90;;;;;;5095758;28;20473;-74
2023/04/21 04:58:45;;;;;;;16.83;15.10;;;8.60;99.90;;;;;;5095602;28;20915;-74
2023/04/21 05:01:13;;;;;;;17.13;15.20;;;8.70;99.90;;;;;;5114026;28;20443;-74
2023/04/21 05:03:42;;;;;;;17.30;15.50;;;8.70;99.90;;;;;;5113972;28;20866;-74
2023/04/21 05:06:10;;;;;;;16.80;14.90;;;8.60;99.90;;;;;;5113898;28;20439;-74
2023/04/21 05:08:40;;;;;;;19.20;15.63;;;8.60;99.90;;;;;;5095616;28;20451;-74
2023/04/21 05:11:08;;;;;;;16.77;15.13;;;8.70;99.90;;;;;;5095438;28;21020;-74
2023/04/21 05:13:36;;;;;;;16.97;15.33;;;8.70;99.90;;;;;;5095981;28;20466;-74
2023/04/21 05:16:10;;;;;;;16.40;14.80;;;8.70;99.90;;;;;;5095528;28;20518;-74
2023/04/21 05:18:38;;;;;;;17.83;14.97;;;8.70;99.90;;;;;;5113723;28;20949;-74
2023/04/21 05:21:06;;;;;;;17.03;15.47;;;8.70;99.90;;;;;;5113763;28;20934;-74
2023/04/21 05:23:34;;;;;;;16.80;14.40;;;8.70;99.90;;;;;;5113948;28;20812;-74
2023/04/21 05:26:02;;;;;;;18.67;16.37;;;8.70;99.90;;;;;;5113609;28;20463;-74
2023/04/21 05:28:31;;;;;;;17.93;14.57;;;8.70;99.90;;;;;;5113600;28;20786;-74
2023/04/21 05:31:00;;;;;;;17.73;15.90;;;8.70;99.90;;;;;;5095179;28;20492;-74
2023/04/21 05:33:30;;;;;;;17.43;15.70;;;8.70;99.90;;;;;;5113219;28;20455;-74
2023/04/21 05:35:59;;;;;;;18.53;15.80;;;8.80;99.90;;;;;;5095367;28;20447;-74
2023/04/21 05:38:27;;;;;;;15.47;13.73;;;8.80;99.90;;;;;;5095078;28;20467;-74
2023/04/21 05:40:55;;;;;;;16.40;14.80;;;8.80;99.90;;;;;;5113484;28;20427;-74
2023/04/21 05:43:23;;;;;;;19.40;15.93;;;8.90;99.90;;;;;;5113481;28;20530;-74
2023/04/21 05:45:51;;;;;;;17.43;15.73;;;8.90;99.90;;;;;;5095046;28;20981;-74
2023/04/21 05:48:20;;;;;;;17.17;15.37;;;8.90;99.90;;;;;;5113555;28;20467;-74
2023/04/21 05:50:49;;;;;;;17.67;15.23;;;8.90;99.90;;;;;;5113225;28;20450;-75
2023/04/21 05:53:17;;;;;;;17.30;15.60;;;9.00;99.90;;;;;;5094970;28;20470;-74
2023/04/21 05:55:45;;;;;;;16.73;15.13;;;9.00;99.90;;;;;;5095139;28;20539;-75
2023/04/21 05:58:13;;;;;;;17.60;15.53;;;9.10;99.90;;;;;;5094975;28;20442;-75
2023/04/21 06:00:42;;;;;;;18.23;15.27;;;9.20;99.90;;;;;;5094808;28;20485;-75
2023/04/21 06:03:10;;;;;;;16.50;14.90;;;9.30;99.90;;;;;;5094740;28;20466;-76
2023/04/21 06:05:38;;;;;;;18.37;16.50;;;9.50;99.90;;;;;;5094901;28;20469;-76
2023/04/21 06:08:07;;;;;;;16.57;13.90;;;9.60;99.90;;;;;;5094808;28;20441;-76
2023/04/21 06:10:36;;;;;;;12.80;11.43;;;9.80;99.90;;;;;;5113109;28;20435;-76
2023/04/21 06:13:04;;;;;;;19.00;14.37;;;10.00;99.90;;;;;;5094609;28;21020;-76
2023/04/21 06:15:32;;;;;;;15.50;13.90;;;10.30;99.90;;;;;;5094926;28;20454;-76
2023/04/21 06:18:00;;;;;;;16.10;13.70;;;10.50;99.90;;;;;;5094993;28;20448;-76
2023/04/21 06:20:28;;;;;;;15.20;13.77;;;10.70;99.90;;;;;;5113056;28;20554;-76
2023/04/21 06:22:56;;;;;;;15.00;13.00;;;10.90;99.90;;;;;;5095339;28;20460;-76
2023/04/21 06:25:26;;;;;;;15.03;13.20;;;11.10;99.90;;;;;;5112827;28;20497;-75
2023/04/21 06:27:55;;;;;;;14.80;13.40;;;11.30;99.90;;;;;;5094705;28;20455;-76
2023/04/21 06:30:23;;;;;;;15.00;13.10;;;11.50;99.90;;;;;;5113110;28;20446;-74
2023/04/21 06:32:51;;;;;;;15.50;13.53;;;11.70;99.90;;;;;;5094541;28;20991;-74
2023/04/21 06:35:20;;;;;;;15.07;13.00;;;11.90;99.90;;;;;;5094599;28;20812;-77
2023/04/21 06:37:48;;;;;;;16.47;12.87;;;12.00;99.90;;;;;;5094780;28;20450;-75
2023/04/21 06:40:16;;;;;;;14.60;13.00;;;12.20;99.90;;;;;;5113246;28;20446;-75
2023/04/21 06:42:46;;;;;;;18.20;16.30;;;12.40;99.90;;;;;;5094591;28;21059;-75
2023/04/21 06:45:14;;;;;;;16.20;14.20;;;12.60;99.90;;;;;;5114965;28;20435;-75
2023/04/21 06:47:42;;;;;;;16.43;14.50;;;12.80;99.90;;;;;;5098425;28;20932;-75
2023/04/21 06:50:11;;;;;;;15.57;13.80;;;13.10;99.90;;;;;;5098329;28;20471;-75
2023/04/21 06:52:39;;;;;;;13.70;12.20;;;13.20;99.90;;;;;;5097998;28;20490;-75
2023/04/21 06:55:08;;;;;;;14.60;12.57;;;13.40;99.90;;;;;;5098171;28;20989;-75
2023/04/21 06:57:36;;;;;;;15.70;12.53;;;13.60;99.90;;;;;;5098256;28;20965;-75
2023/04/21 07:00:07;;;;;;;14.20;12.80;;;13.80;99.90;;;;;;5098033;28;20455;-75
2023/04/21 07:02:35;;;;;;;14.73;12.90;;;13.90;99.90;;;;;;5098186;28;20455;-75
2023/04/21 07:05:04;;;;;;;14.40;12.87;;;14.00;99.90;;;;;;5098349;28;20443;-75
2023/04/21 07:07:32;;;;;;;15.27;13.77;;;14.20;99.90;;;;;;5097946;28;20493;-75
2023/04/21 07:10:00;;;;;;;13.83;12.40;;;14.30;99.90;;;;;;5116242;28;20476;-75
2023/04/21 07:12:28;;;;;;;17.00;11.53;;;14.40;99.90;;;;;;5116362;28;20479;-75
2023/04/21 07:14:56;;;;;;;13.80;12.00;;;14.40;99.90;;;;;;5098769;28;20439;-75
2023/04/21 07:17:26;;;;;;;15.53;12.30;;;14.60;99.90;;;;;;5098388;28;20794;-75
2023/04/21 07:19:54;;;;;;;15.30;11.97;;;14.70;99.90;;;;;;5116289;28;20549;-75
2023/04/21 07:22:22;;;;;;;15.23;11.77;;;14.70;99.90;;;;;;5098414;28;20550;-75
2023/04/21 07:24:51;;;;;;;13.70;12.27;;;14.80;99.90;;;;;;5097967;28;20450;-75
2023/04/21 07:27:19;;;;;;;15.93;11.87;;;14.90;99.90;;;;;;5098003;28;20443;-75
2023/04/21 07:29:48;;;;;;;13.37;11.97;;;15.00;99.90;;;;;;5097984;28;20887;-75
2023/04/21 07:32:16;;;;;;;14.43;11.50;;;15.00;99.90;;;;;;5116558;28;20562;-75
2023/04/21 07:34:47;;;;;;;12.63;10.80;;;15.10;99.90;;;;;;5116141;28;20423;-75
2023/04/21 07:37:15;;;;;;;14.03;12.30;;;15.20;99.90;;;;;;5116380;28;20767;-75
2023/04/21 07:39:43;;;;;;;12.43;11.23;;;15.30;99.90;;;;;;5116207;28;20428;-75
2023/04/21 07:42:11;;;;;;;14.37;12.60;;;15.40;99.90;;;;;;5115765;28;20429;-75
2023/04/21 07:44:40;;;;;;;16.10;11.60;;;15.50;99.90;;;;;;5115877;28;20435;-75
2023/04/21 07:47:08;;;;;;;14.83;12.70;;;15.50;99.90;;;;;;5097553;28;20439;-75
2023/04/21 07:49:36;;;;;;;13.47;12.07;;;15.60;99.90;;;;;;5097526;28;20522;-75
2023/04/21 07:52:05;;;;;;;13.30;11.60;;;15.70;99.90;;;;;;5115411;28;20471;-75
2023/04/21 07:54:33;;;;;;;14.50;11.93;;;15.70;99.90;;;;;;5115702;28;20406;-75
2023/04/21 07:57:01;;;;;;;14.73;12.50;;;15.80;99.90;;;;;;5115200;28;20402;-75
2023/04/21 07:59:30;;;;;;;13.50;12.03;;;15.90;99.90;;;;;;5097161;28;20418;-75
2023/04/21 08:01:58;;;;;;;14.30;12.77;;;16.00;99.90;;;;;;5097488;28;20797;-77
2023/04/21 08:04:26;;;;;;;18.07;11.47;;;16.10;99.90;;;;;;5097640;28;20492;-75
2023/04/21 08:06:54;;;;;;;16.63;13.03;;;16.20;99.90;;;;;;5097262;28;20533;-75
2023/04/21 08:09:24;;;;;;;15.00;11.70;;;16.30;99.90;;;;;;5096940;28;20410;-75
2023/04/21 08:11:53;;;;;;;17.00;11.70;;;16.40;99.90;;;;;;5115135;28;20446;-75
2023/04/21 08:14:21;;;;;;;14.10;11.97;;;16.50;99.90;;;;;;5096711;28;20917;-75
2023/04/21 08:16:50;;;;;;;17.93;11.30;;;16.60;99.90;;;;;;5096740;28;20944;-75
2023/04/21 08:19:18;;;;;;;12.03;10.77;;;16.70;99.90;;;;;;5115147;28;20767;-75
2023/04/21 08:21:47;;;;;;;12.87;11.50;;;16.80;99.90;;;;;;5096597;28;20447;-75
2023/04/21 08:24:15;;;;;;;13.40;11.20;;;16.90;99.90;;;;;;5096852;28;20421;-75
2023/04/21 08:26:45;;;;;;;13.07;11.63;;;17.00;99.90;;;;;;5096452;28;20480;-75
2023/04/21 08:29:13;;;;;;;12.93;11.03;;;17.10;99.90;;;;;;5096539;28;20456;-75
2023/04/21 08:31:41;;;;;;;15.27;11.00;;;17.20;99.90;;;;;;5114710;28;20410;-75
2023/04/21 08:34:09;;;;;;;11.70;10.50;;;17.30;99.90;;;;;;5114695;28;20984;-75
2023/04/21 08:36:38;;;;;;;16.33;10.27;;;17.40;99.90;;;;;;5114925;28;20901;-75
2023/04/21 08:39:06;;;;;;;15.53;14.03;;;17.50;99.90;;;;;;5096460;28;20991;-75
2023/04/21 08:41:34;;;;;;;14.63;10.77;;;17.60;99.90;;;;;;5114701;28;20979;-76
2023/04/21 08:44:04;;;;;;;14.03;9.90;;;17.70;99.90;;;;;;5114353;28;20422;-76
2023/04/21 08:46:34;;;;;;;14.70;10.80;;;17.80;99.90;;;;;;5096696;28;20418;-75
2023/04/21 08:49:03;;;;;;;15.90;10.40;;;17.90;99.90;;;;;;5114488;28;20436;-76
2023/04/21 08:51:31;;;;;;;11.87;10.63;;;17.90;99.90;;;;;;5114718;28;20473;-75
2023/04/21 08:53:59;;;;;;;12.13;10.77;;;18.00;99.90;;;;;;5096674;28;20442;-76
2023/04/21 08:56:28;;;;;;;12.83;10.97;;;18.10;99.90;;;;;;5096034;28;20414;-76
2023/04/21 08:58:56;;;;;;;14.30;10.57;;;18.20;99.90;;;;;;5114821;28;20410;-75
2023/04/21 09:01:25;;;;;;;14.57;11.13;;;18.20;99.90;;;;;;5095867;28;20555;-75
2023/04/21 09:03:54;;;;;;;14.10;10.97;;;18.20;99.90;;;;;;5095955;28;20455;-76
2023/04/21 09:06:22;;;;;;;15.13;11.13;;;18.20;99.90;;;;;;5096058;28;20864;-75
2023/04/21 09:08:55;;;;;;;12.57;11.00;;;18.30;99.90;;;;;;5113515;28;20475;-76
2023/04/21 09:11:24;;;;;;;12.40;11.10;;;18.30;99.90;;;;;;5095947;28;20482;-76
2023/04/21 09:13:57;;;;;;;12.97;10.17;;;18.40;99.90;;;;;;5095914;28;20463;-75
2023/04/21 09:16:31;;;;;;;15.63;10.00;;;18.50;99.90;;;;;;5095919;28;20893;-76
2023/04/21 09:19:00;;;;;;;16.80;11.50;;;18.50;99.90;;;;;;5113960;28;20419;-76
2023/04/21 09:21:30;;;;;;;12.10;10.10;;;18.60;99.90;;;;;;5113983;28;20435;-76
2023/04/21 09:24:05;;;;;;;13.63;10.50;;;18.60;99.90;;;;;;5095518;28;20513;-76
2023/04/21 09:26:33;;;;;;;11.33;10.13;;;18.60;99.90;;;;;;5095573;28;20909;-76
2023/04/21 09:29:06;;;;;;;15.53;10.67;;;18.70;99.90;;;;;;5095596;28;20422;-76
2023/04/21 09:31:36;;;;;;;12.47;9.87;;;18.80;99.90;;;;;;5095531;28;20444;-76
2023/04/21 09:34:18;;;;;;;14.90;10.07;;;18.90;99.90;;;;;;5095325;28;20507;-75
2023/04/21 09:36:47;;;;;;;10.53;8.67;;;18.90;99.90;;;;;;5114151;28;20449;-76
2023/04/21 09:39:15;;;;;;;14.33;9.00;;;19.00;99.90;;;;;;5095492;28;20856;-76
2023/04/21 09:41:46;;;;;;;13.40;9.30;;;19.10;99.90;;;;;;5095344;28;20447;-76
2023/04/21 09:44:16;;;;;;;9.77;8.47;;;19.10;99.90;;;;;;5113516;28;20497;-75
2023/04/21 09:46:49;;;;;;;13.50;9.53;;;19.30;99.90;;;;;;5095552;28;20471;-76
2023/04/21 09:49:18;;;;;;;9.80;8.33;;;19.30;99.90;;;;;;5095497;28;20807;-76
2023/04/21 09:51:46;;;;;;;12.80;8.60;;;19.40;99.90;;;;;;5113468;28;20436;-76
2023/04/21 09:54:19;;;;;;;12.90;8.33;;;19.40;99.90;;;;;;5113566;28;20451;-76
2023/04/21 09:56:56;;;;;;;10.57;8.97;;;19.50;99.90;;;;;;5113473;28;20434;-76
2023/04/21 09:59:27;;;;;;;8.53;7.57;;;19.60;99.90;;;;;;5113742;28;20423;-76
2023/04/21 10:01:59;;;;;;;10.60;8.13;;;19.70;99.90;;;;;;5095100;28;20546;-76
2023/04/21 10:04:30;;;;;;;10.33;7.83;;;19.70;99.90;;;;;;5095669;28;20443;-76
2023/04/21 10:07:00;;;;;;;11.67;8.33;;;19.70;99.90;;;;;;5095083;28;20464;-76
2023/04/21 10:09:34;;;;;;;9.70;7.40;;;19.70;99.90;;;;;;5113781;28;20436;-76
2023/04/21 10:12:04;;;;;;;10.20;6.50;;;19.80;99.90;;;;;;5095061;28;20434;-76
2023/04/21 10:14:35;;;;;;;10.83;6.83;;;19.90;99.90;;;;;;5113376;28;20483;-76
2023/04/21 10:17:06;;;;;;;9.27;6.10;;;20.00;99.90;;;;;;5113458;28;20435;-75
2023/04/21 10:19:38;;;;;;;10.80;6.30;;;20.00;99.90;;;;;;5097795;28;20447;-76
2023/04/21 10:22:08;;;;;;;11.47;7.10;;;20.10;99.80;;;;;;5117825;28;20509;-76
2023/04/21 10:24:41;;;;;;;8.27;6.93;;;20.10;99.90;;;;;;5099177;28;20452;-76
2023/04/21 10:27:11;;;;;;;9.27;6.57;;;20.20;99.20;;;;;;5117351;28;20431;-76
2023/04/21 10:29:40;;;;;;;9.40;6.33;;;20.30;99.10;;;;;;5098960;28;20439;-76
2023/04/21 10:32:40;;;;;;;8.20;6.30;;;20.40;99.00;;;;;;5099050;28;20470;-76
2023/04/21 10:35:10;;;;;;;9.07;7.17;;;20.40;98.50;;;;;;5098931;28;20458;-75
2023/04/21 10:37:40;;;;;;;9.50;6.70;;;20.50;98.10;;;;;;5117477;28;20794;-76
2023/04/21 10:40:34;;;;;;;9.13;6.80;;;20.50;98.00;;;;;;5117566;28;20476;-75
2023/04/21 10:43:44;;;;;;;10.60;6.90;;;20.50;98.00;;;;;;5117072;28;20458;-76
2023/04/21 10:46:32;;;;;;;10.60;7.37;;;20.50;97.70;;;;;;5098621;28;20466;-76
2023/04/21 10:49:09;;;;;;;8.93;6.70;;;20.50;97.40;;;;;;5117148;28;20439;-75
2023/04/21 10:52:05;;;;;;;8.87;6.40;;;20.50;97.30;;;;;;5098616;28;20450;-76
2023/04/21 10:54:43;;;;;;;8.50;7.40;;;20.60;97.30;;;;;;5117087;28;20490;-76
2023/04/21 10:57:15;;;;;;;7.70;6.60;;;20.60;97.30;;;;;;5116986;28;20433;-76
2023/04/21 10:59:44;;;;;;;12.77;9.50;;;20.70;97.20;;;;;;5117044;28;20415;-76
2023/04/21 11:02:13;;;;;;;10.67;6.37;;;20.80;97.10;;;;;;5098371;28;20459;-76
2023/04/21 11:04:46;;;;;;;9.07;7.70;;;20.80;96.90;;;;;;5116600;28;20435;-76
2023/04/21 11:07:17;;;;;;;9.90;6.43;;;20.90;96.50;;;;;;5116932;28;20423;-76
2023/04/21 11:09:47;;;;;;;8.63;6.50;;;20.90;96.10;;;;;;5116482;28;20798;-76
2023/04/21 11:12:17;;;;;;;8.07;6.20;;;20.90;95.70;;;;;;5116524;28;20462;-76
2023/04/21 11:14:47;;;;;;;8.10;6.53;;;20.90;95.70;;;;;;5116396;28;20466;-75
2023/04/21 11:17:17;;;;;;;8.30;6.60;;;20.90;95.30;;;;;;5116408;28;20444;-76
2023/04/21 11:19:47;;;;;;;8.50;6.43;;;20.90;95.30;;;;;;5097986;28;20447;-76
2023/04/21 11:22:17;;;;;;;7.90;6.70;;;20.90;94.80;;;;;;5116414;28;20447;-76
2023/04/21 11:24:45;;;;;;;8.07;6.87;;;20.90;94.60;;;;;;5116485;28;20445;-75
2023/04/21 11:27:14;;;;;;;10.20;6.87;;;20.90;94.30;;;;;;5097935;28;20540;-75
2023/04/21 11:29:44;;;;;;;9.63;6.93;;;20.80;94.10;;;;;;5097961;28;20444;-76
2023/04/21 11:32:14;;;;;;;10.97;6.27;;;20.80;94.00;;;;;;5116720;28;20496;-75
2023/04/21 11:34:42;;;;;;;8.77;6.60;;;20.70;94.00;;;;;;5101259;28;20549;-75
2023/04/21 11:37:22;;;;;;;8.30;6.50;;;20.70;94.20;;;;;;5119283;28;20431;-75
2023/04/21 11:39:57;;;;;;;9.47;6.23;;;20.60;93.40;;;;;;5098701;28;20443;-75
2023/04/21 11:42:25;;;;;;;12.03;6.40;;;20.60;93.70;;;;;;5098038;28;20461;-74
2023/04/21 11:44:55;;;;;;;9.80;6.53;;;20.70;93.70;;;;;;5097381;28;20436;-75
2023/04/21 11:47:24;;;;;;;8.23;6.37;;;20.70;93.40;;;;;;5115663;28;20930;-75
2023/04/21 11:49:54;;;;;;;10.43;8.30;;;20.80;92.80;;;;;;5097685;28;20451;-75
2023/04/21 11:52:26;;;;;;;7.70;6.90;;;20.90;92.70;;;;;;5097314;28;20463;-74
2023/04/21 11:54:59;;;;;;;13.47;6.83;;;21.00;92.80;;;;;;5097304;28;20467;-74
2023/04/21 11:57:28;;;;;;;10.77;7.20;;;21.10;92.90;;;;;;5097582;28;20443;-75
2023/04/21 11:59:59;;;;;;;7.63;6.23;;;21.10;92.50;;;;;;5096974;28;20448;-75
2023/04/21 12:02:29;;;;;;;7.40;5.90;;;21.20;92.10;;;;;;5115674;28;20448;-74
2023/04/21 12:04:59;;;;;;;7.33;5.57;;;21.20;91.90;;;;;;5115735;28;20451;-75
2023/04/21 12:07:30;;;;;;;8.80;6.60;;;21.30;91.80;;;;;;5115900;28;20415;-75
2023/04/21 12:09:59;;;;;;;9.40;6.97;;;21.30;91.50;;;;;;5115473;28;20519;-75
2023/04/21 12:12:27;;;;;;;8.73;6.00;;;21.40;91.30;;;;;;5096830;28;20463;-75
2023/04/21 12:14:55;;;;;;;6.80;6.10;;;21.40;91.00;;;;;;5097203;28;20495;-75
2023/04/21 12:17:23;;;;;;;8.00;5.50;;;21.50;90.90;;;;;;5097307;28;20811;-74
2023/04/21 12:19:51;;;;;;;7.13;6.43;;;21.50;90.60;;;;;;5096842;28;20814;-75
2023/04/21 12:22:21;;;;;;;10.33;6.03;;;21.60;90.40;;;;;;5115294;28;20447;-75
2023/04/21 12:24:51;;;;;;;8.37;5.70;;;21.50;89.90;;;;;;5096948;28;20508;-74
2023/04/21 12:27:20;;;;;;;10.90;6.83;;;21.60;89.00;;;;;;5114942;28;20431;-74
2023/04/21 12:29:48;;;;;;;7.00;6.17;;;21.60;89.20;;;;;;5115027;28;20975;-75
2023/04/21 12:32:16;;;;;;;9.07;6.53;;;21.60;89.00;;;;;;5096441;28;20516;-75
2023/04/21 12:34:44;;;;;;;9.10;5.47;;;21.60;87.90;;;;;;5096684;28;20472;-74
2023/04/21 12:37:13;;;;;;;7.87;5.90;;;21.60;88.10;;;;;;5096540;28;20856;-75
2023/04/21 12:39:41;;;;;;;9.10;6.60;;;21.60;87.50;;;;;;5096616;28;21017;-74
2023/04/21 12:42:10;;;;;;;9.47;6.30;;;21.60;87.40;;;;;;5095613;28;20463;-74
2023/04/21 12:44:40;;;;;;;7.90;5.90;;;21.60;86.60;;;;;;5114687;28;20922;-74
2023/04/21 12:47:08;;;;;;;8.30;5.70;;;21.50;86.20;;;;;;5096381;28;20509;-74